createdAt,value
2018-09-17T00:00:35.240Z,2.10
2018-09-17T00:03:05.305Z,1.57
2018-09-17T00:05:34.600Z,1.97
2018-09-17T00:08:03.748Z,1.80
2018-09-17T00:10:32.932Z,1.70
2018-09-17T00:13:02.045Z,1.40
2018-09-17T00:15:31.184Z,1.70
2018-09-17T00:18:00.429Z,1.43
2018-09-17T00:20:29.992Z,1.50
2018-09-17T00:22:59.329Z,1.60
2018-09-17T00:25:28.541Z,1.40
2018-09-17T00:27:57.724Z,1.60
2018-09-17T00:30:26.937Z,1.60
2018-09-17T00:32:56.237Z,1.40
2018-09-17T00:35:25.420Z,1.83
2018-09-17T00:37:54.284Z,1.60
2018-09-17T00:40:23.517Z,1.50
2018-09-17T00:42:52.818Z,1.50
2018-09-17T00:45:22.009Z,1.43
2018-09-17T00:47:51.206Z,1.80
2018-09-17T00:50:20.402Z,1.23
2018-09-17T00:52:49.489Z,1.37
2018-09-17T00:55:18.597Z,1.63
2018-09-17T00:57:47.747Z,1.67
2018-09-17T01:00:16.877Z,1.70
2018-09-17T01:02:45.981Z,1.80
2018-09-17T01:05:15.177Z,1.33
2018-09-17T01:07:44.467Z,1.47
2018-09-17T01:10:14.542Z,1.50
2018-09-17T01:12:43.776Z,1.50
2018-09-17T01:15:12.888Z,1.83
2018-09-17T01:17:42.084Z,1.60
2018-09-17T01:20:11.399Z,1.50
2018-09-17T01:22:40.481Z,1.60
2018-09-17T01:25:09.765Z,1.60
2018-09-17T01:27:38.873Z,1.80
2018-09-17T01:30:08.064Z,1.77
2018-09-17T01:32:37.256Z,1.43
2018-09-17T01:35:06.641Z,2.30
2018-09-17T01:37:36.085Z,2.10
2018-09-17T01:40:05.356Z,1.47
2018-09-17T01:42:34.665Z,1.80
2018-09-17T01:45:04.173Z,1.60
2018-09-17T01:47:33.365Z,1.50
2018-09-17T01:50:02.673Z,1.60
2018-09-17T01:52:31.749Z,1.70
2018-09-17T01:55:00.876Z,1.80
2018-09-17T01:57:30.049Z,1.90
2018-09-17T01:59:59.309Z,2.20
2018-09-17T02:02:28.193Z,2.10
2018-09-17T02:04:57.332Z,1.87
2018-09-17T02:07:26.437Z,2.23
2018-09-17T02:09:55.677Z,1.80
2018-09-17T02:12:24.827Z,1.77
2018-09-17T02:14:53.938Z,1.80
2018-09-17T02:17:23.008Z,1.87
2018-09-17T02:19:52.004Z,1.80
2018-09-17T02:22:21.086Z,1.63
2018-09-17T02:24:50.280Z,2.00
2018-09-17T02:27:19.332Z,1.83
2018-09-17T02:29:48.472Z,1.87
2018-09-17T02:32:17.351Z,1.57
2018-09-17T02:34:46.224Z,2.00
2018-09-17T02:37:15.468Z,1.97
2018-09-17T02:39:44.665Z,2.10
2018-09-17T02:42:13.942Z,1.90
2018-09-17T02:44:42.781Z,2.27
2018-09-17T02:47:12.248Z,2.00
2018-09-17T02:49:41.484Z,2.20
2018-09-17T02:52:10.658Z,2.07
2018-09-17T02:54:39.828Z,2.33
2018-09-17T02:57:08.932Z,2.10
2018-09-17T02:59:38.012Z,2.10
2018-09-17T03:02:07.127Z,2.23
2018-09-17T03:04:36.317Z,2.50
2018-09-17T03:07:05.613Z,1.90
2018-09-17T03:09:34.802Z,2.30
2018-09-17T03:12:03.900Z,2.60
2018-09-17T03:14:32.873Z,2.37
2018-09-17T03:17:15.648Z,2.33
2018-09-17T03:19:45.781Z,2.27
2018-09-17T03:22:18.540Z,2.20
2018-09-17T03:24:47.717Z,2.10
2018-09-17T03:27:16.904Z,2.40
2018-09-17T03:29:46.009Z,2.87
2018-09-17T03:32:15.208Z,2.57
2018-09-17T03:34:44.283Z,2.53
2018-09-17T03:37:13.284Z,2.63
2018-09-17T03:39:42.472Z,2.70
2018-09-17T03:42:11.615Z,3.00
2018-09-17T03:44:40.860Z,3.20
2018-09-17T03:47:09.968Z,2.93
2018-09-17T03:49:39.073Z,2.90
2018-09-17T03:52:08.248Z,2.77
2018-09-17T03:54:37.361Z,3.33
2018-09-17T03:57:06.549Z,3.27
2018-09-17T03:59:35.396Z,3.40
2018-09-17T04:02:04.636Z,3.53
2018-09-17T04:04:33.833Z,3.57
2018-09-17T04:07:05.636Z,3.67
2018-09-17T04:09:34.489Z,3.33
2018-09-17T04:12:03.400Z,4.07
2018-09-17T04:14:32.304Z,3.00
2018-09-17T04:17:01.232Z,3.40
2018-09-17T04:19:30.141Z,3.03
2018-09-17T04:21:59.124Z,3.10
2018-09-17T04:24:28.336Z,3.37
2018-09-17T04:26:57.542Z,3.73
2018-09-17T04:29:26.712Z,3.40
2018-09-17T04:31:55.825Z,3.93
2018-09-17T04:34:25.005Z,3.70
2018-09-17T04:36:54.009Z,3.63
2018-09-17T04:39:24.561Z,3.73
2018-09-17T04:41:53.841Z,3.50
2018-09-17T04:44:23.136Z,3.27
2018-09-17T04:46:52.329Z,3.33
2018-09-17T04:49:21.541Z,3.60
2018-09-17T04:51:50.929Z,3.13
2018-09-17T04:54:20.136Z,3.53
2018-09-17T04:56:49.331Z,2.80
2018-09-17T04:59:18.539Z,3.00
2018-09-17T05:01:47.728Z,3.67
2018-09-17T05:04:16.903Z,3.00
2018-09-17T05:06:46.065Z,3.67
2018-09-17T05:09:15.097Z,3.60
2018-09-17T05:11:44.297Z,3.70
2018-09-17T05:14:13.411Z,3.90
2018-09-17T05:16:42.648Z,3.70
2018-09-17T05:19:11.889Z,4.00
2018-09-17T05:21:41.196Z,3.60
2018-09-17T05:24:10.385Z,3.83
2018-09-17T05:26:39.893Z,3.37
2018-09-17T05:29:09.092Z,3.20
2018-09-17T05:31:38.298Z,3.37
2018-09-17T05:34:07.781Z,3.80
2018-09-17T05:36:36.888Z,3.40
2018-09-17T05:39:08.794Z,3.43
2018-09-17T05:41:37.679Z,3.20
2018-09-17T05:44:07.033Z,3.40
2018-09-17T05:46:36.332Z,3.40
2018-09-17T05:49:05.662Z,3.57
2018-09-17T05:51:34.828Z,2.90
2018-09-17T05:54:04.117Z,3.60
2018-09-17T05:56:33.325Z,3.20
2018-09-17T05:59:02.304Z,4.03
2018-09-17T06:01:31.417Z,3.40
2018-09-17T06:04:00.527Z,3.60
2018-09-17T06:06:29.697Z,3.00
2018-09-17T06:08:58.796Z,3.30
2018-09-17T06:11:27.881Z,3.40
2018-09-17T06:13:57.021Z,3.17
2018-09-17T06:16:26.278Z,2.80
2018-09-17T06:18:55.277Z,3.17
2018-09-17T06:21:24.483Z,4.07
2018-09-17T06:23:53.656Z,2.90
2018-09-17T06:26:22.751Z,3.60
2018-09-17T06:28:51.854Z,3.07
2018-09-17T06:31:20.948Z,2.93
2018-09-17T06:33:50.067Z,3.70
2018-09-17T06:36:19.264Z,3.27
2018-09-17T06:38:48.554Z,2.90
2018-09-17T06:41:17.767Z,3.20
2018-09-17T06:43:46.830Z,3.03
2018-09-17T06:46:16.032Z,3.13
2018-09-17T06:48:45.217Z,3.70
2018-09-17T06:51:14.320Z,3.03
2018-09-17T06:53:43.455Z,3.00
2018-09-17T06:56:12.522Z,2.70
2018-09-17T06:58:41.616Z,3.00
2018-09-17T07:01:10.804Z,2.90
2018-09-17T07:03:39.997Z,3.00
2018-09-17T07:06:09.123Z,2.90
2018-09-17T07:08:38.188Z,3.10
2018-09-17T07:11:07.874Z,2.60
2018-09-17T07:13:36.999Z,3.20
2018-09-17T07:16:06.321Z,2.97
2018-09-17T07:18:35.989Z,2.93
2018-09-17T07:21:05.325Z,2.80
2018-09-17T07:23:35.152Z,3.20
2018-09-17T07:26:04.516Z,3.17
2018-09-17T07:28:33.368Z,2.40
2018-09-17T07:31:02.250Z,2.57
2018-09-17T07:33:31.284Z,2.30
2018-09-17T07:36:00.476Z,2.70
2018-09-17T07:38:29.681Z,2.70
2018-09-17T07:40:58.964Z,3.43
2018-09-17T07:43:28.073Z,2.93
2018-09-17T07:45:57.461Z,2.37
2018-09-17T07:48:26.340Z,2.63
2018-09-17T07:50:55.564Z,2.67
2018-09-17T07:53:24.756Z,2.83
2018-09-17T07:55:53.597Z,2.70
2018-09-17T07:58:22.476Z,2.33
2018-09-17T08:00:51.348Z,2.50
2018-09-17T08:03:20.188Z,2.40
2018-09-17T08:05:49.053Z,2.33
2018-09-17T08:08:18.192Z,2.80
2018-09-17T08:10:47.384Z,2.87
2018-09-17T08:13:16.229Z,2.50
2018-09-17T08:15:45.081Z,2.63
2018-09-17T08:18:13.965Z,2.57
2018-09-17T08:20:42.842Z,2.40
2018-09-17T08:23:11.737Z,2.67
2018-09-17T08:25:40.583Z,2.50
2018-09-17T08:28:09.425Z,2.13
2018-09-17T08:30:38.272Z,2.37
2018-09-17T08:33:07.141Z,1.93
2018-09-17T08:35:36.024Z,2.60
2018-09-17T08:38:05.031Z,1.77
2018-09-17T08:40:33.921Z,2.73
2018-09-17T08:43:02.671Z,2.57
2018-09-17T08:45:31.499Z,2.17
2018-09-17T08:48:00.267Z,3.03
2018-09-17T08:50:29.090Z,2.13
2018-09-17T08:52:57.903Z,2.17
2018-09-17T08:55:31.979Z,2.40
2018-09-17T08:58:06.112Z,2.10
2018-09-17T09:00:40.162Z,2.47
2018-09-17T09:03:14.282Z,2.70
2018-09-17T09:05:48.238Z,2.30
2018-09-17T09:08:17.002Z,2.10
2018-09-17T09:10:46.802Z,2.30
2018-09-17T09:13:24.606Z,2.13
2018-09-17T09:15:53.419Z,2.70
2018-09-17T09:18:22.231Z,1.90
2018-09-17T09:20:51.023Z,2.07
2018-09-17T09:23:19.796Z,2.13
2018-09-17T09:25:48.569Z,2.10
2018-09-17T09:28:17.370Z,2.60
2018-09-17T09:30:46.186Z,2.57
2018-09-17T09:33:14.959Z,2.20
2018-09-17T09:35:43.726Z,2.23
2018-09-17T09:38:12.549Z,1.97
2018-09-17T09:40:41.343Z,1.90
2018-09-17T09:43:10.110Z,1.77
2018-09-17T09:45:38.887Z,1.93
2018-09-17T09:48:07.674Z,2.10
2018-09-17T09:50:36.459Z,2.00
2018-09-17T09:53:05.231Z,1.47
2018-09-17T09:55:34.032Z,1.37
2018-09-17T09:58:02.954Z,2.13
2018-09-17T10:00:37.168Z,2.33
2018-09-17T10:03:11.195Z,2.07
2018-09-17T10:05:40.008Z,1.57
2018-09-17T10:08:09.630Z,2.10
2018-09-17T10:10:44.010Z,1.70
2018-09-17T10:13:18.001Z,1.40
2018-09-17T10:15:51.201Z,1.40
2018-09-17T10:18:25.290Z,1.40
2018-09-17T10:20:54.090Z,1.63
2018-09-17T10:23:22.850Z,1.63
2018-09-17T10:25:51.671Z,1.60
2018-09-17T10:28:20.442Z,1.40
2018-09-17T10:30:49.450Z,1.53
2018-09-17T10:33:18.242Z,1.97
2018-09-17T10:35:47.019Z,1.40
2018-09-17T10:38:15.805Z,1.40
2018-09-17T10:40:44.571Z,1.57
2018-09-17T10:43:13.354Z,1.70
2018-09-17T10:45:42.174Z,1.50
2018-09-17T10:48:10.943Z,1.43
2018-09-17T10:50:39.754Z,1.50
2018-09-17T10:53:08.510Z,1.93
2018-09-17T10:55:37.286Z,1.93
2018-09-17T10:58:06.168Z,1.97
2018-09-17T11:00:34.953Z,1.50
2018-09-17T11:03:03.759Z,1.87
2018-09-17T11:05:32.542Z,1.63
2018-09-17T11:08:01.330Z,1.50
2018-09-17T11:10:30.137Z,1.50
2018-09-17T11:12:58.894Z,1.43
2018-09-17T11:16:00.224Z,1.93
2018-09-17T11:18:28.999Z,1.80
2018-09-17T11:20:57.764Z,1.93
2018-09-17T11:23:26.536Z,1.73
2018-09-17T11:25:55.326Z,1.20
2018-09-17T11:28:24.115Z,1.57
2018-09-17T11:30:52.903Z,1.80
2018-09-17T11:33:21.679Z,1.80
2018-09-17T11:35:50.514Z,1.53
2018-09-17T11:38:19.302Z,1.37
2018-09-17T11:40:48.090Z,1.30
2018-09-17T11:43:16.940Z,1.90
2018-09-17T11:45:45.738Z,1.47
2018-09-17T11:48:14.569Z,2.07
2018-09-17T11:50:43.315Z,1.77
2018-09-17T11:53:12.098Z,0.93
2018-09-17T11:55:40.904Z,1.10
2018-09-17T11:58:09.706Z,1.87
2018-09-17T12:00:43.683Z,1.50
2018-09-17T12:03:17.586Z,1.50
2018-09-17T12:05:51.692Z,1.70
2018-09-17T12:08:20.559Z,1.20
2018-09-17T12:10:49.342Z,1.57
2018-09-17T12:13:18.162Z,1.40
2018-09-17T12:15:46.926Z,1.60
2018-09-17T12:18:15.690Z,1.23
2018-09-17T12:20:44.434Z,1.67
2018-09-17T12:23:13.211Z,1.50
2018-09-17T12:25:41.971Z,1.30
2018-09-17T12:28:10.739Z,1.37
2018-09-17T12:30:39.538Z,1.00
2018-09-17T12:33:08.300Z,0.90
2018-09-17T12:35:37.120Z,1.23
2018-09-17T12:38:06.138Z,1.40
2018-09-17T12:40:34.902Z,1.43
2018-09-17T12:43:03.705Z,1.30
2018-09-17T12:45:32.470Z,1.73
2018-09-17T12:48:01.308Z,1.10
2018-09-17T12:50:30.120Z,1.67
2018-09-17T12:52:58.902Z,1.37
2018-09-17T12:55:27.660Z,1.20
2018-09-17T12:57:56.439Z,1.47
2018-09-17T13:00:25.230Z,1.43
2018-09-17T13:02:53.998Z,1.37
2018-09-17T13:05:22.826Z,1.43
2018-09-17T13:07:51.622Z,1.10
2018-09-17T13:10:20.415Z,1.23
2018-09-17T13:12:49.190Z,1.00
2018-09-17T13:15:17.967Z,1.40
2018-09-17T13:17:46.738Z,0.97
2018-09-17T13:20:15.475Z,1.10
2018-09-17T13:22:44.242Z,1.30
2018-09-17T13:25:13.021Z,1.97
2018-09-17T13:27:41.799Z,1.40
2018-09-17T13:30:10.634Z,1.30
2018-09-17T13:32:39.415Z,2.27
2018-09-17T13:35:08.246Z,1.40
2018-09-17T13:37:37.051Z,1.33
2018-09-17T13:40:05.898Z,1.20
2018-09-17T13:42:34.815Z,1.17
2018-09-17T13:45:03.560Z,1.10
2018-09-17T13:47:32.365Z,1.47
2018-09-17T13:50:01.451Z,1.40
2018-09-17T13:52:30.234Z,1.17
2018-09-17T13:54:58.990Z,1.60
2018-09-17T13:57:29.698Z,1.20
2018-09-17T13:59:58.722Z,1.37
2018-09-17T14:02:27.499Z,1.57
2018-09-17T14:04:56.263Z,0.90
2018-09-17T14:07:25.058Z,0.90
2018-09-17T14:09:53.838Z,1.40
2018-09-17T14:12:22.663Z,1.40
2018-09-17T14:14:51.458Z,1.10
2018-09-17T14:17:20.212Z,1.30
2018-09-17T14:19:49.026Z,1.20
2018-09-17T14:22:17.840Z,1.67
2018-09-17T14:24:46.619Z,1.57
2018-09-17T14:27:15.498Z,1.47
2018-09-17T14:29:44.296Z,1.17
2018-09-17T14:32:18.310Z,1.20
2018-09-17T14:34:47.133Z,1.47
2018-09-17T14:37:15.894Z,1.37
2018-09-17T14:39:44.719Z,1.37
2018-09-17T14:42:13.480Z,1.60
2018-09-17T14:44:42.332Z,2.70
2018-09-17T14:47:11.142Z,3.03
2018-09-17T14:49:39.918Z,2.20
2018-09-17T14:52:08.767Z,2.87
2018-09-17T14:54:37.969Z,1.80
2018-09-17T14:57:06.827Z,2.63
2018-09-17T14:59:35.651Z,2.10
2018-09-17T15:02:04.766Z,1.53
2018-09-17T15:04:33.753Z,1.10
2018-09-17T15:07:02.774Z,1.50
2018-09-17T15:09:31.549Z,1.50
2018-09-17T15:12:00.343Z,1.30
2018-09-17T15:14:29.307Z,1.27
2018-09-17T15:16:57.998Z,0.83
2018-09-17T15:19:26.791Z,1.20
2018-09-17T15:21:55.597Z,1.70
2018-09-17T15:24:24.384Z,1.13
2018-09-17T15:26:53.246Z,1.20
2018-09-17T15:29:22.034Z,1.30
2018-09-17T15:31:50.811Z,1.20
2018-09-17T15:34:19.694Z,1.63
2018-09-17T15:36:48.448Z,1.30
2018-09-17T15:39:17.314Z,1.37
2018-09-17T15:41:46.099Z,1.23
2018-09-17T15:44:14.955Z,1.67
2018-09-17T15:46:43.694Z,1.93
2018-09-17T15:49:12.477Z,1.40
2018-09-17T15:51:41.373Z,1.83
2018-09-17T15:54:10.186Z,1.33
2018-09-17T15:56:38.959Z,1.40
2018-09-17T15:59:07.747Z,1.30
2018-09-17T16:01:36.551Z,1.10
2018-09-17T16:04:05.272Z,1.43
2018-09-17T16:06:34.046Z,1.30
2018-09-17T16:09:02.862Z,1.30
2018-09-17T16:11:31.640Z,1.63
2018-09-17T16:14:00.414Z,1.00
2018-09-17T16:16:29.206Z,1.43
2018-09-17T16:18:57.975Z,1.40
2018-09-17T16:21:26.763Z,1.30
2018-09-17T16:23:55.558Z,2.03
2018-09-17T16:26:24.330Z,1.03
2018-09-17T16:28:53.090Z,1.20
2018-09-17T16:31:21.878Z,1.10
2018-09-17T16:33:51.058Z,1.43
2018-09-17T16:36:20.079Z,1.20
2018-09-17T16:38:48.855Z,1.57
2018-09-17T16:41:17.738Z,1.17
2018-09-17T16:43:46.690Z,1.17
2018-09-17T16:46:15.507Z,1.57
2018-09-17T16:48:44.318Z,1.17
2018-09-17T16:51:13.165Z,1.00
2018-09-17T16:53:41.967Z,1.37
2018-09-17T16:56:10.822Z,1.57
2018-09-17T16:58:39.606Z,0.97
2018-09-17T17:01:08.442Z,1.03
2018-09-17T17:03:37.202Z,1.00
2018-09-17T17:06:06.829Z,0.93
2018-09-17T17:08:35.618Z,1.20
2018-09-17T17:11:04.420Z,1.47
2018-09-17T17:13:33.219Z,1.50
2018-09-17T17:16:02.059Z,1.00
2018-09-17T17:18:31.184Z,1.40
2018-09-17T17:21:00.335Z,1.00
2018-09-17T17:23:29.532Z,1.60
2018-09-17T17:25:58.334Z,1.10
2018-09-17T17:28:27.511Z,1.57
2018-09-17T17:30:56.637Z,1.50
2018-09-17T17:33:25.501Z,1.00
2018-09-17T17:35:54.308Z,1.00
2018-09-17T17:38:23.116Z,1.03
2018-09-17T17:40:51.972Z,0.83
2018-09-17T17:43:20.715Z,1.37
2018-09-17T17:45:49.524Z,1.10
2018-09-17T17:48:20.063Z,0.90
2018-09-17T17:50:48.907Z,0.90
2018-09-17T17:53:17.842Z,1.47
2018-09-17T17:55:47.080Z,1.20
2018-09-17T17:58:18.246Z,1.03
2018-09-17T18:00:47.145Z,1.80
2018-09-17T18:03:15.913Z,0.80
2018-09-17T18:05:44.727Z,1.03
2018-09-17T18:08:13.548Z,1.40
2018-09-17T18:10:42.391Z,1.20
2018-09-17T18:13:11.383Z,1.27
2018-09-17T18:15:40.174Z,1.40
2018-09-17T18:18:08.973Z,1.00
2018-09-17T18:20:37.781Z,1.87
2018-09-17T18:23:06.912Z,1.10
2018-09-17T18:25:35.717Z,1.70
2018-09-17T18:28:04.540Z,1.13
2018-09-17T18:30:34.054Z,0.90
2018-09-17T18:33:03.311Z,1.20
2018-09-17T18:35:32.589Z,1.33
2018-09-17T18:38:02.095Z,1.10
2018-09-17T18:40:31.256Z,1.20
2018-09-17T18:43:01.449Z,1.33
2018-09-17T18:45:30.469Z,1.30
2018-09-17T18:47:59.658Z,0.97
2018-09-17T18:50:28.771Z,1.30
2018-09-17T18:52:57.851Z,0.90
2018-09-17T18:55:27.249Z,1.00
2018-09-17T18:57:56.348Z,1.30
2018-09-17T19:00:25.439Z,1.40
2018-09-17T19:02:54.683Z,1.30
2018-09-17T19:05:23.423Z,1.13
2018-09-17T19:07:53.031Z,1.03
2018-09-17T19:10:22.127Z,1.50
2018-09-17T19:12:51.206Z,0.90
2018-09-17T19:15:25.595Z,1.00
2018-09-17T19:17:54.528Z,1.10
2018-09-17T19:20:23.364Z,0.90
2018-09-17T19:22:57.701Z,1.20
2018-09-17T19:25:26.531Z,1.30
2018-09-17T19:28:00.800Z,1.13
2018-09-17T19:30:29.594Z,1.23
2018-09-17T19:32:58.722Z,1.07
2018-09-17T19:35:27.554Z,1.47
2018-09-17T19:38:01.696Z,0.90
2018-09-17T19:40:35.323Z,1.23
2018-09-17T19:43:04.431Z,1.47
2018-09-17T19:45:39.495Z,1.40
2018-09-17T19:48:08.342Z,1.60
2018-09-17T19:50:42.888Z,1.57
2018-09-17T19:53:11.746Z,1.20
2018-09-17T19:55:40.578Z,1.50
2018-09-17T19:58:14.741Z,1.70
2018-09-17T20:00:44.432Z,1.60
2018-09-17T20:03:13.185Z,1.07
2018-09-17T20:05:47.192Z,1.07
2018-09-17T20:08:15.978Z,1.40
2018-09-17T20:10:44.789Z,0.97
2018-09-17T20:13:14.032Z,1.47
2018-09-17T20:15:42.870Z,1.33
2018-09-17T20:18:11.650Z,1.33
2018-09-17T20:20:40.427Z,1.37
2018-09-17T20:23:09.258Z,1.23
2018-09-17T20:25:38.003Z,1.40
2018-09-17T20:28:06.816Z,1.57
2018-09-17T20:30:35.615Z,1.10
2018-09-17T20:33:04.455Z,1.53
2018-09-17T20:35:33.349Z,1.30
2018-09-17T20:38:02.129Z,1.30
2018-09-17T20:40:30.935Z,1.70
2018-09-17T20:42:59.694Z,1.37
2018-09-17T20:45:28.890Z,1.00
2018-09-17T20:47:57.684Z,1.80
2018-09-17T20:50:26.467Z,1.67
2018-09-17T20:52:55.252Z,1.47
2018-09-17T20:55:24.198Z,1.10
2018-09-17T20:57:52.958Z,1.27
2018-09-17T21:00:21.948Z,1.50
2018-09-17T21:02:50.735Z,1.60
2018-09-17T21:05:19.523Z,1.20
2018-09-17T21:07:48.295Z,1.30
2018-09-17T21:10:17.075Z,1.43
2018-09-17T21:12:52.428Z,1.20
2018-09-17T21:15:21.167Z,1.80
2018-09-17T21:17:49.955Z,1.13
2018-09-17T21:20:18.812Z,1.57
2018-09-17T21:22:47.579Z,1.20
2018-09-17T21:25:16.508Z,1.43
2018-09-17T21:27:45.255Z,1.60
2018-09-17T21:30:14.462Z,1.63
2018-09-17T21:32:43.223Z,1.13
2018-09-17T21:35:12.016Z,1.27
2018-09-17T21:37:40.795Z,1.30
2018-09-17T21:40:09.555Z,1.77
2018-09-17T21:42:38.330Z,1.37
2018-09-17T21:45:08.819Z,1.27
2018-09-17T21:47:37.588Z,1.30
2018-09-17T21:50:06.410Z,1.23
2018-09-17T21:52:35.244Z,1.23
2018-09-17T21:55:04.011Z,1.33
2018-09-17T21:57:33.230Z,1.20
2018-09-17T22:00:02.030Z,1.93
2018-09-17T22:02:30.855Z,1.70
2018-09-17T22:04:59.949Z,1.37
2018-09-17T22:07:29.137Z,1.80
2018-09-17T22:09:58.174Z,1.33
2018-09-17T22:12:27.270Z,1.47
2018-09-17T22:14:56.374Z,1.53
2018-09-17T22:17:25.462Z,1.33
2018-09-17T22:19:54.329Z,1.53
2018-09-17T22:22:23.475Z,1.70
2018-09-17T22:24:52.252Z,1.47
2018-09-17T22:27:21.971Z,1.77
2018-09-17T22:29:50.948Z,2.20
2018-09-17T22:32:19.927Z,1.40
2018-09-17T22:34:48.945Z,1.73
2018-09-17T22:37:17.919Z,1.40
2018-09-17T22:39:47.018Z,1.50
2018-09-17T22:42:16.019Z,1.23
2018-09-17T22:44:44.990Z,1.37
2018-09-17T22:47:14.263Z,1.47
2018-09-17T22:49:43.287Z,1.80
2018-09-17T22:52:12.279Z,1.27
2018-09-17T22:54:41.058Z,1.57
2018-09-17T22:57:09.826Z,1.87
2018-09-17T22:59:38.574Z,1.57
2018-09-17T23:02:07.388Z,1.50
2018-09-17T23:04:36.210Z,1.17
2018-09-17T23:07:05.415Z,1.13
2018-09-17T23:09:34.508Z,1.60
2018-09-17T23:12:03.598Z,1.03
2018-09-17T23:14:32.702Z,1.90
2018-09-17T23:17:01.790Z,1.20
2018-09-17T23:19:30.770Z,1.30
2018-09-17T23:21:59.882Z,1.37
2018-09-17T23:24:28.863Z,1.10
2018-09-17T23:26:57.642Z,1.37
2018-09-17T23:29:26.453Z,1.23
2018-09-17T23:31:55.390Z,1.03
2018-09-17T23:34:24.575Z,2.00
2018-09-17T23:36:53.454Z,1.40
2018-09-17T23:39:22.510Z,1.10
2018-09-17T23:41:51.245Z,1.27
2018-09-17T23:44:20.403Z,1.60
2018-09-17T23:46:49.482Z,1.60
2018-09-17T23:49:18.590Z,1.60
2018-09-17T23:51:47.678Z,1.60
2018-09-17T23:54:16.783Z,0.90
2018-09-17T23:56:45.874Z,1.60
2018-09-17T23:59:14.862Z,1.30
